sensor_id;sensor_type;location;lat;lon;timestamp;P1;durP1;ratioP1;P2;durP2;ratioP2
21550;SDS011;10936;49.836;7.078;2023-03-20T06:02:51;51.57;;;26.07;;
21550;SDS011;10936;49.836;7.078;2023-03-20T06:05:16;54.27;;;26.87;;
21550;SDS011;10936;49.836;7.078;2023-03-20T06:07:42;50.60;;;25.67;;
21550;SDS011;10936;49.836;7.078;2023-03-20T06:10:08;51.87;;;26.40;;
21550;SDS011;10936;49.836;7.078;2023-03-20T06:12:34;47.13;;;24.27;;
21550;SDS011;10936;49.836;7.078;2023-03-20T06:15:00;54.50;;;26.23;;
21550;SDS011;10936;49.836;7.078;2023-03-20T06:17:26;56.20;;;26.43;;
21550;SDS011;10936;49.836;7.078;2023-03-20T06:19:51;45.57;;;25.83;;
21550;SDS011;10936;49.836;7.078;2023-03-20T06:22:17;51.03;;;25.60;;
21550;SDS011;10936;49.836;7.078;2023-03-20T06:24:43;47.93;;;25.53;;
21550;SDS011;10936;49.836;7.078;2023-03-20T06:27:08;56.50;;;27.00;;
21550;SDS011;10936;49.836;7.078;2023-03-20T06:29:34;45.97;;;25.80;;
21550;SDS011;10936;49.836;7.078;2023-03-20T06:31:59;46.43;;;24.07;;
21550;SDS011;10936;49.836;7.078;2023-03-20T06:34:25;43.03;;;24.10;;
21550;SDS011;10936;49.836;7.078;2023-03-20T06:36:51;43.13;;;23.60;;
21550;SDS011;10936;49.836;7.078;2023-03-20T06:39:17;39.30;;;23.03;;
21550;SDS011;10936;49.836;7.078;2023-03-20T06:41:42;42.93;;;22.00;;
21550;SDS011;10936;49.836;7.078;2023-03-20T06:44:08;39.03;;;20.87;;
21550;SDS011;10936;49.836;7.078;2023-03-20T06:46:34;32.13;;;19.00;;
21550;SDS011;10936;49.836;7.078;2023-03-20T06:48:59;36.97;;;20.10;;
21550;SDS011;10936;49.836;7.078;2023-03-20T06:51:25;31.83;;;18.47;;
21550;SDS011;10936;49.836;7.078;2023-03-20T06:53:51;34.27;;;19.13;;
21550;SDS011;10936;49.836;7.078;2023-03-20T06:56:16;31.80;;;18.57;;
21550;SDS011;10936;49.836;7.078;2023-03-20T06:58:42;29.93;;;16.83;;
21550;SDS011;10936;49.836;7.078;2023-03-20T07:01:11;30.03;;;16.17;;
21550;SDS011;10936;49.836;7.078;2023-03-20T07:03:38;26.93;;;15.97;;
21550;SDS011;10936;49.836;7.078;2023-03-20T07:06:04;27.20;;;15.07;;
21550;SDS011;10936;49.836;7.078;2023-03-20T07:08:30;26.43;;;15.03;;
21550;SDS011;10936;49.836;7.078;2023-03-20T07:10:56;28.70;;;15.03;;
21550;SDS011;10936;49.836;7.078;2023-03-20T07:13:22;27.40;;;14.53;;
21550;SDS011;10936;49.836;7.078;2023-03-20T07:15:47;25.20;;;14.57;;
21550;SDS011;10936;49.836;7.078;2023-03-20T07:18:13;24.47;;;15.20;;
21550;SDS011;10936;49.836;7.078;2023-03-20T07:20:39;26.43;;;15.60;;
21550;SDS011;10936;49.836;7.078;2023-03-20T07:23:04;24.60;;;15.07;;
21550;SDS011;10936;49.836;7.078;2023-03-20T07:25:31;21.73;;;14.07;;
21550;SDS011;10936;49.836;7.078;2023-03-20T07:27:57;23.43;;;13.90;;
21550;SDS011;10936;49.836;7.078;2023-03-20T07:30:23;23.70;;;14.00;;
21550;SDS011;10936;49.836;7.078;2023-03-20T07:32:48;24.23;;;13.97;;
21550;SDS011;10936;49.836;7.078;2023-03-20T07:35:14;21.67;;;12.37;;
21550;SDS011;10936;49.836;7.078;2023-03-20T07:37:40;20.20;;;12.90;;
21550;SDS011;10936;49.836;7.078;2023-03-20T07:40:06;18.73;;;12.40;;
21550;SDS011;10936;49.836;7.078;2023-03-20T07:42:32;20.33;;;11.70;;
21550;SDS011;10936;49.836;7.078;2023-03-20T07:44:58;18.50;;;11.10;;
21550;SDS011;10936;49.836;7.078;2023-03-20T07:47:24;19.70;;;11.50;;
21550;SDS011;10936;49.836;7.078;2023-03-20T07:49:49;18.50;;;11.87;;
21550;SDS011;10936;49.836;7.078;2023-03-20T07:52:15;16.30;;;11.50;;
21550;SDS011;10936;49.836;7.078;2023-03-20T07:54:41;18.93;;;10.63;;
21550;SDS011;10936;49.836;7.078;2023-03-20T07:57:06;17.03;;;10.83;;
21550;SDS011;10936;49.836;7.078;2023-03-20T07:59:32;16.20;;;10.33;;
21550;SDS011;10936;49.836;7.078;2023-03-20T08:01:57;13.97;;;9.67;;
21550;SDS011;10936;49.836;7.078;2023-03-20T08:04:23;14.97;;;9.70;;
21550;SDS011;10936;49.836;7.078;2023-03-20T08:06:49;15.17;;;8.43;;
21550;SDS011;10936;49.836;7.078;2023-03-20T08:09:15;14.73;;;8.97;;
21550;SDS011;10936;49.836;7.078;2023-03-20T08:11:41;15.53;;;9.17;;
21550;SDS011;10936;49.836;7.078;2023-03-20T08:14:07;14.10;;;8.77;;
21550;SDS011;10936;49.836;7.078;2023-03-20T08:16:32;13.30;;;9.00;;
21550;SDS011;10936;49.836;7.078;2023-03-20T08:18:58;12.77;;;8.63;;
21550;SDS011;10936;49.836;7.078;2023-03-20T08:21:28;12.87;;;8.73;;
21550;SDS011;10936;49.836;7.078;2023-03-20T08:23:55;14.73;;;8.80;;
21550;SDS011;10936;49.836;7.078;2023-03-20T08:26:20;16.17;;;8.50;;
21550;SDS011;10936;49.836;7.078;2023-03-20T08:28:46;12.87;;;8.43;;
21550;SDS011;10936;49.836;7.078;2023-03-20T08:31:12;12.13;;;8.33;;
21550;SDS011;10936;49.836;7.078;2023-03-20T08:33:38;11.53;;;7.73;;
21550;SDS011;10936;49.836;7.078;2023-03-20T08:36:04;12.90;;;8.27;;
21550;SDS011;10936;49.836;7.078;2023-03-20T08:38:30;13.20;;;7.97;;
21550;SDS011;10936;49.836;7.078;2023-03-20T08:40:56;12.37;;;7.03;;
21550;SDS011;10936;49.836;7.078;2023-03-20T08:43:22;11.73;;;6.03;;
21550;SDS011;10936;49.836;7.078;2023-03-20T08:45:48;11.80;;;6.17;;
21550;SDS011;10936;49.836;7.078;2023-03-20T08:48:13;8.63;;;5.30;;
21550;SDS011;10936;49.836;7.078;2023-03-20T08:50:39;8.60;;;5.70;;
21550;SDS011;10936;49.836;7.078;2023-03-20T08:53:04;8.87;;;5.97;;
21550;SDS011;10936;49.836;7.078;2023-03-20T08:55:30;8.60;;;5.53;;
21550;SDS011;10936;49.836;7.078;2023-03-20T08:57:56;8.77;;;5.40;;
21550;SDS011;10936;49.836;7.078;2023-03-20T09:00:21;14.67;;;6.43;;
21550;SDS011;10936;49.836;7.078;2023-03-20T09:02:48;11.33;;;6.17;;
21550;SDS011;10936;49.836;7.078;2023-03-20T09:05:14;10.13;;;6.57;;
21550;SDS011;10936;49.836;7.078;2023-03-20T09:07:40;10.90;;;6.20;;
21550;SDS011;10936;49.836;7.078;2023-03-20T09:10:05;10.83;;;6.30;;
21550;SDS011;10936;49.836;7.078;2023-03-20T09:12:32;11.37;;;6.13;;
21550;SDS011;10936;49.836;7.078;2023-03-20T09:14:57;15.90;;;7.50;;
21550;SDS011;10936;49.836;7.078;2023-03-20T09:17:23;13.23;;;7.50;;
21550;SDS011;10936;49.836;7.078;2023-03-20T09:19:49;11.53;;;7.07;;
21550;SDS011;10936;49.836;7.078;2023-03-20T09:22:15;12.03;;;6.97;;
21550;SDS011;10936;49.836;7.078;2023-03-20T09:24:43;9.97;;;7.00;;
21550;SDS011;10936;49.836;7.078;2023-03-20T09:27:09;13.03;;;7.37;;
21550;SDS011;10936;49.836;7.078;2023-03-20T09:29:37;12.57;;;7.87;;
21550;SDS011;10936;49.836;7.078;2023-03-20T09:32:06;11.63;;;7.63;;
21550;SDS011;10936;49.836;7.078;2023-03-20T09:34:35;13.53;;;8.50;;
21550;SDS011;10936;49.836;7.078;2023-03-20T09:37:00;12.97;;;7.67;;
21550;SDS011;10936;49.836;7.078;2023-03-20T09:39:27;19.20;;;9.90;;
21550;SDS011;10936;49.836;7.078;2023-03-20T09:41:52;14.47;;;8.77;;
21550;SDS011;10936;49.836;7.078;2023-03-20T09:54:55;22.13;;;12.47;;
21550;SDS011;10936;49.836;7.078;2023-03-20T09:59:54;20.23;;;11.30;;
21550;SDS011;10936;49.836;7.078;2023-03-20T10:02:37;22.87;;;10.37;;
21550;SDS011;10936;49.836;7.078;2023-03-20T10:05:28;15.93;;;10.37;;
21550;SDS011;10936;49.836;7.078;2023-03-20T10:07:57;17.20;;;10.73;;
21550;SDS011;10936;49.836;7.078;2023-03-20T10:10:28;19.07;;;11.50;;
21550;SDS011;10936;49.836;7.078;2023-03-20T10:15:52;16.70;;;10.50;;
21550;SDS011;10936;49.836;7.078;2023-03-20T10:18:33;17.70;;;10.53;;
21550;SDS011;10936;49.836;7.078;2023-03-20T10:21:13;17.83;;;11.07;;
21550;SDS011;10936;49.836;7.078;2023-03-20T10:26:21;18.43;;;9.53;;
21550;SDS011;10936;49.836;7.078;2023-03-20T10:34:07;15.47;;;9.83;;
21550;SDS011;10936;49.836;7.078;2023-03-20T10:37:19;13.83;;;9.53;;
21550;SDS011;10936;49.836;7.078;2023-03-20T10:39:56;14.23;;;9.13;;
21550;SDS011;10936;49.836;7.078;2023-03-20T10:42:27;15.83;;;9.57;;
21550;SDS011;10936;49.836;7.078;2023-03-20T10:44:57;13.87;;;9.23;;
21550;SDS011;10936;49.836;7.078;2023-03-20T10:47:28;16.60;;;9.30;;
21550;SDS011;10936;49.836;7.078;2023-03-20T10:49:57;15.83;;;9.40;;
21550;SDS011;10936;49.836;7.078;2023-03-20T10:52:30;15.87;;;9.33;;
21550;SDS011;10936;49.836;7.078;2023-03-20T10:55:00;15.93;;;10.03;;
21550;SDS011;10936;49.836;7.078;2023-03-20T10:57:35;16.90;;;9.43;;
21550;SDS011;10936;49.836;7.078;2023-03-20T11:00:06;15.63;;;9.30;;
21550;SDS011;10936;49.836;7.078;2023-03-20T11:02:38;13.40;;;9.43;;
21550;SDS011;10936;49.836;7.078;2023-03-20T11:05:17;16.23;;;10.10;;
21550;SDS011;10936;49.836;7.078;2023-03-20T11:07:50;15.80;;;10.37;;
21550;SDS011;10936;49.836;7.078;2023-03-20T11:10:25;17.63;;;10.27;;
21550;SDS011;10936;49.836;7.078;2023-03-20T11:12:51;16.67;;;10.13;;
21550;SDS011;10936;49.836;7.078;2023-03-20T11:18:03;14.97;;;9.23;;
21550;SDS011;10936;49.836;7.078;2023-03-20T11:20:32;16.67;;;8.50;;
21550;SDS011;10936;49.836;7.078;2023-03-20T11:23:04;12.40;;;7.67;;
21550;SDS011;10936;49.836;7.078;2023-03-20T11:25:33;13.97;;;7.97;;
21550;SDS011;10936;49.836;7.078;2023-03-20T11:31:13;15.20;;;7.60;;
21550;SDS011;10936;49.836;7.078;2023-03-20T11:36:38;9.73;;;6.50;;
21550;SDS011;10936;49.836;7.078;2023-03-20T11:44:32;13.73;;;7.33;;
21550;SDS011;10936;49.836;7.078;2023-03-20T11:47:02;11.60;;;7.00;;
21550;SDS011;10936;49.836;7.078;2023-03-20T11:49:30;10.50;;;6.77;;
21550;SDS011;10936;49.836;7.078;2023-03-20T11:52:10;11.03;;;7.23;;
21550;SDS011;10936;49.836;7.078;2023-03-20T11:54:38;10.47;;;6.90;;
21550;SDS011;10936;49.836;7.078;2023-03-20T11:57:58;10.60;;;6.90;;
21550;SDS011;10936;49.836;7.078;2023-03-20T12:00:21;11.93;;;7.53;;
21550;SDS011;10936;49.836;7.078;2023-03-20T12:02:49;13.37;;;7.70;;
21550;SDS011;10936;49.836;7.078;2023-03-20T12:07:52;12.87;;;7.23;;
21550;SDS011;10936;49.836;7.078;2023-03-20T12:10:23;12.20;;;6.63;;
21550;SDS011;10936;49.836;7.078;2023-03-20T12:12:55;13.37;;;6.10;;
21550;SDS011;10936;49.836;7.078;2023-03-20T12:15:30;8.67;;;5.30;;
21550;SDS011;10936;49.836;7.078;2023-03-20T12:20:39;8.53;;;5.73;;
21550;SDS011;10936;49.836;7.078;2023-03-20T12:28:23;11.90;;;6.03;;
21550;SDS011;10936;49.836;7.078;2023-03-20T12:31:16;9.93;;;5.67;;
21550;SDS011;10936;49.836;7.078;2023-03-20T12:33:52;13.20;;;5.30;;
21550;SDS011;10936;49.836;7.078;2023-03-20T12:36:37;7.83;;;5.23;;
21550;SDS011;10936;49.836;7.078;2023-03-20T12:39:19;9.13;;;5.67;;
21550;SDS011;10936;49.836;7.078;2023-03-20T12:42:05;10.47;;;5.20;;
21550;SDS011;10936;49.836;7.078;2023-03-20T12:47:30;7.20;;;4.73;;
21550;SDS011;10936;49.836;7.078;2023-03-20T12:50:35;9.50;;;5.17;;
21550;SDS011;10936;49.836;7.078;2023-03-20T13:01:10;10.33;;;6.00;;
21550;SDS011;10936;49.836;7.078;2023-03-20T13:14:51;8.53;;;5.00;;
21550;SDS011;10936;49.836;7.078;2023-03-20T13:34:27;11.43;;;6.00;;
21550;SDS011;10936;49.836;7.078;2023-03-20T13:37:18;14.00;;;6.03;;
21550;SDS011;10936;49.836;7.078;2023-03-20T13:40:13;14.63;;;6.27;;
21550;SDS011;10936;49.836;7.078;2023-03-20T13:42:42;10.87;;;5.43;;
21550;SDS011;10936;49.836;7.078;2023-03-20T13:45:20;12.60;;;5.27;;
21550;SDS011;10936;49.836;7.078;2023-03-20T13:47:51;11.07;;;5.70;;
21550;SDS011;10936;49.836;7.078;2023-03-20T13:50:24;11.00;;;5.07;;
21550;SDS011;10936;49.836;7.078;2023-03-20T13:53:00;12.93;;;6.63;;
21550;SDS011;10936;49.836;7.078;2023-03-20T13:55:39;14.57;;;5.33;;
21550;SDS011;10936;49.836;7.078;2023-03-20T14:04:00;11.40;;;5.33;;
21550;SDS011;10936;49.836;7.078;2023-03-20T14:08:55;10.23;;;5.73;;
21550;SDS011;10936;49.836;7.078;2023-03-20T14:13:56;15.77;;;5.07;;
21550;SDS011;10936;49.836;7.078;2023-03-20T14:16:28;7.50;;;4.50;;
21550;SDS011;10936;49.836;7.078;2023-03-20T14:21:54;10.37;;;5.13;;
21550;SDS011;10936;49.836;7.078;2023-03-20T14:24:21;11.03;;;4.60;;
21550;SDS011;10936;49.836;7.078;2023-03-20T14:26:49;10.80;;;4.23;;
21550;SDS011;10936;49.836;7.078;2023-03-20T14:29:20;13.70;;;5.33;;
21550;SDS011;10936;49.836;7.078;2023-03-20T14:34:44;10.77;;;4.57;;
21550;SDS011;10936;49.836;7.078;2023-03-20T14:42:54;10.07;;;4.27;;
21550;SDS011;10936;49.836;7.078;2023-03-20T14:45:30;9.97;;;4.20;;
21550;SDS011;10936;49.836;7.078;2023-03-20T14:48:03;9.23;;;3.17;;
21550;SDS011;10936;49.836;7.078;2023-03-20T14:50:48;10.13;;;3.00;;
21550;SDS011;10936;49.836;7.078;2023-03-20T14:53:22;10.03;;;2.80;;
21550;SDS011;10936;49.836;7.078;2023-03-20T15:01:09;8.47;;;3.40;;
21550;SDS011;10936;49.836;7.078;2023-03-20T15:03:46;9.70;;;3.07;;
21550;SDS011;10936;49.836;7.078;2023-03-20T15:06:19;7.43;;;2.80;;
21550;SDS011;10936;49.836;7.078;2023-03-20T15:08:48;9.87;;;3.47;;
21550;SDS011;10936;49.836;7.078;2023-03-20T15:11:19;11.03;;;3.00;;
21550;SDS011;10936;49.836;7.078;2023-03-20T15:13:46;8.73;;;3.27;;
21550;SDS011;10936;49.836;7.078;2023-03-20T15:16:13;5.83;;;2.73;;
21550;SDS011;10936;49.836;7.078;2023-03-20T15:18:41;13.30;;;4.33;;
21550;SDS011;10936;49.836;7.078;2023-03-20T15:21:10;10.87;;;3.20;;
21550;SDS011;10936;49.836;7.078;2023-03-20T15:23:41;9.73;;;3.67;;
21550;SDS011;10936;49.836;7.078;2023-03-20T15:26:07;9.90;;;3.67;;
21550;SDS011;10936;49.836;7.078;2023-03-20T15:28:33;9.30;;;4.57;;
21550;SDS011;10936;49.836;7.078;2023-03-20T15:31:01;9.57;;;3.00;;
21550;SDS011;10936;49.836;7.078;2023-03-20T15:33:33;8.43;;;4.53;;
21550;SDS011;10936;49.836;7.078;2023-03-20T15:38:34;7.17;;;2.60;;
21550;SDS011;10936;49.836;7.078;2023-03-20T15:41:04;8.80;;;3.20;;
21550;SDS011;10936;49.836;7.078;2023-03-20T15:43:31;9.23;;;3.03;;
21550;SDS011;10936;49.836;7.078;2023-03-20T15:45:59;9.17;;;4.37;;
21550;SDS011;10936;49.836;7.078;2023-03-20T15:48:24;9.13;;;2.50;;
21550;SDS011;10936;49.836;7.078;2023-03-20T15:50:52;8.57;;;2.50;;
21550;SDS011;10936;49.836;7.078;2023-03-20T15:53:29;11.77;;;3.33;;
21550;SDS011;10936;49.836;7.078;2023-03-20T15:56:05;10.73;;;3.57;;
21550;SDS011;10936;49.836;7.078;2023-03-20T15:58:33;9.70;;;2.80;;
21550;SDS011;10936;49.836;7.078;2023-03-20T16:01:00;11.27;;;3.63;;
21550;SDS011;10936;49.836;7.078;2023-03-20T16:03:28;7.53;;;2.93;;
21550;SDS011;10936;49.836;7.078;2023-03-20T16:05:57;8.30;;;3.07;;
21550;SDS011;10936;49.836;7.078;2023-03-20T16:08:26;10.17;;;3.40;;
21550;SDS011;10936;49.836;7.078;2023-03-20T16:10:56;9.13;;;3.17;;
21550;SDS011;10936;49.836;7.078;2023-03-20T16:13:32;9.77;;;3.07;;
21550;SDS011;10936;49.836;7.078;2023-03-20T16:16:03;7.00;;;3.23;;
21550;SDS011;10936;49.836;7.078;2023-03-20T16:18:30;6.23;;;2.83;;
21550;SDS011;10936;49.836;7.078;2023-03-20T16:21:01;7.23;;;2.67;;
21550;SDS011;10936;49.836;7.078;2023-03-20T16:23:37;13.57;;;3.17;;
21550;SDS011;10936;49.836;7.078;2023-03-20T16:26:06;9.30;;;2.80;;
21550;SDS011;10936;49.836;7.078;2023-03-20T16:28:35;5.63;;;2.10;;
21550;SDS011;10936;49.836;7.078;2023-03-20T16:31:12;7.67;;;2.70;;
21550;SDS011;10936;49.836;7.078;2023-03-20T16:33:43;7.10;;;2.10;;
21550;SDS011;10936;49.836;7.078;2023-03-20T16:36:14;6.53;;;1.77;;
21550;SDS011;10936;49.836;7.078;2023-03-20T16:38:52;7.70;;;2.10;;
21550;SDS011;10936;49.836;7.078;2023-03-20T16:41:28;6.33;;;2.17;;
21550;SDS011;10936;49.836;7.078;2023-03-20T16:43:56;10.40;;;2.70;;
21550;SDS011;10936;49.836;7.078;2023-03-20T16:46:23;10.73;;;2.73;;
21550;SDS011;10936;49.836;7.078;2023-03-20T16:48:56;21.53;;;2.93;;
21550;SDS011;10936;49.836;7.078;2023-03-20T16:51:31;9.07;;;2.63;;
21550;SDS011;10936;49.836;7.078;2023-03-20T16:53:57;6.73;;;2.50;;
21550;SDS011;10936;49.836;7.078;2023-03-20T16:56:34;7.00;;;2.60;;
21550;SDS011;10936;49.836;7.078;2023-03-20T16:59:08;7.47;;;2.77;;
21550;SDS011;10936;49.836;7.078;2023-03-20T17:01:41;10.67;;;3.87;;
21550;SDS011;10936;49.836;7.078;2023-03-20T17:06:45;8.23;;;2.33;;
21550;SDS011;10936;49.836;7.078;2023-03-20T17:11:44;24.53;;;6.73;;
21550;SDS011;10936;49.836;7.078;2023-03-20T17:14:15;10.77;;;3.47;;
21550;SDS011;10936;49.836;7.078;2023-03-20T17:16:41;9.60;;;2.80;;
21550;SDS011;10936;49.836;7.078;2023-03-20T17:19:15;10.13;;;2.50;;
21550;SDS011;10936;49.836;7.078;2023-03-20T17:21:45;6.60;;;2.90;;
21550;SDS011;10936;49.836;7.078;2023-03-20T17:24:12;6.13;;;2.57;;
21550;SDS011;10936;49.836;7.078;2023-03-20T17:26:38;9.23;;;3.60;;
21550;SDS011;10936;49.836;7.078;2023-03-20T17:29:05;9.00;;;2.30;;
21550;SDS011;10936;49.836;7.078;2023-03-20T17:31:31;9.87;;;2.90;;
21550;SDS011;10936;49.836;7.078;2023-03-20T17:33:57;10.10;;;2.30;;
21550;SDS011;10936;49.836;7.078;2023-03-20T17:36:26;8.30;;;2.27;;
21550;SDS011;10936;49.836;7.078;2023-03-20T17:38:55;9.43;;;2.63;;
21550;SDS011;10936;49.836;7.078;2023-03-20T17:41:22;9.27;;;2.90;;
21550;SDS011;10936;49.836;7.078;2023-03-20T17:43:47;7.80;;;2.47;;
21550;SDS011;10936;49.836;7.078;2023-03-20T17:48:45;9.03;;;3.80;;
21550;SDS011;10936;49.836;7.078;2023-03-20T17:51:12;8.00;;;2.97;;
21550;SDS011;10936;49.836;7.078;2023-03-20T17:53:37;12.43;;;3.00;;
21550;SDS011;10936;49.836;7.078;2023-03-20T17:56:07;10.63;;;4.57;;
21550;SDS011;10936;49.836;7.078;2023-03-20T17:58:39;7.53;;;2.90;;
21550;SDS011;10936;49.836;7.078;2023-03-20T18:01:08;5.10;;;2.23;;
21550;SDS011;10936;49.836;7.078;2023-03-20T18:03:34;11.37;;;2.40;;
21550;SDS011;10936;49.836;7.078;2023-03-20T18:06:00;6.10;;;2.27;;
21550;SDS011;10936;49.836;7.078;2023-03-20T18:08:27;8.23;;;2.07;;
21550;SDS011;10936;49.836;7.078;2023-03-20T18:10:52;8.33;;;2.20;;
21550;SDS011;10936;49.836;7.078;2023-03-20T18:13:19;9.37;;;2.60;;
21550;SDS011;10936;49.836;7.078;2023-03-20T18:15:49;9.50;;;2.67;;
21550;SDS011;10936;49.836;7.078;2023-03-20T18:18:16;11.83;;;2.50;;
21550;SDS011;10936;49.836;7.078;2023-03-20T18:20:42;11.50;;;3.13;;
21550;SDS011;10936;49.836;7.078;2023-03-20T18:23:09;8.77;;;3.00;;
21550;SDS011;10936;49.836;7.078;2023-03-20T18:25:35;8.13;;;2.27;;
21550;SDS011;10936;49.836;7.078;2023-03-20T18:28:02;9.50;;;2.70;;
21550;SDS011;10936;49.836;7.078;2023-03-20T18:30:33;7.63;;;2.70;;
21550;SDS011;10936;49.836;7.078;2023-03-20T18:33:01;10.13;;;2.90;;
21550;SDS011;10936;49.836;7.078;2023-03-20T18:35:28;9.73;;;2.77;;
21550;SDS011;10936;49.836;7.078;2023-03-20T18:37:54;8.73;;;3.20;;
21550;SDS011;10936;49.836;7.078;2023-03-20T18:40:21;10.80;;;3.50;;
21550;SDS011;10936;49.836;7.078;2023-03-20T18:42:52;11.77;;;3.87;;
21550;SDS011;10936;49.836;7.078;2023-03-20T18:45:18;16.27;;;4.87;;
21550;SDS011;10936;49.836;7.078;2023-03-20T18:47:45;13.03;;;4.80;;
21550;SDS011;10936;49.836;7.078;2023-03-20T18:53:00;19.47;;;5.23;;
21550;SDS011;10936;49.836;7.078;2023-03-20T18:55:26;22.90;;;7.23;;
21550;SDS011;10936;49.836;7.078;2023-03-20T18:57:53;18.03;;;6.50;;
21550;SDS011;10936;49.836;7.078;2023-03-20T19:02:51;24.47;;;7.57;;
21550;SDS011;10936;49.836;7.078;2023-03-20T19:05:19;9.73;;;3.37;;
21550;SDS011;10936;49.836;7.078;2023-03-20T19:07:46;10.27;;;3.63;;
21550;SDS011;10936;49.836;7.078;2023-03-20T19:10:20;9.47;;;3.10;;
21550;SDS011;10936;49.836;7.078;2023-03-20T19:12:51;8.37;;;3.40;;
21550;SDS011;10936;49.836;7.078;2023-03-20T19:15:18;8.70;;;3.07;;
21550;SDS011;10936;49.836;7.078;2023-03-20T19:17:44;8.27;;;2.57;;
21550;SDS011;10936;49.836;7.078;2023-03-20T19:22:58;7.30;;;2.53;;
21550;SDS011;10936;49.836;7.078;2023-03-20T19:25:25;4.77;;;2.30;;
21550;SDS011;10936;49.836;7.078;2023-03-20T19:27:50;7.83;;;3.17;;
21550;SDS011;10936;49.836;7.078;2023-03-20T19:32:53;7.33;;;2.57;;
21550;SDS011;10936;49.836;7.078;2023-03-20T19:35:19;6.30;;;2.40;;
21550;SDS011;10936;49.836;7.078;2023-03-20T19:37:45;9.37;;;2.50;;
21550;SDS011;10936;49.836;7.078;2023-03-20T19:40:22;6.33;;;2.10;;
21550;SDS011;10936;49.836;7.078;2023-03-20T19:42:51;8.10;;;2.47;;
21550;SDS011;10936;49.836;7.078;2023-03-20T19:45:17;7.50;;;2.63;;
21550;SDS011;10936;49.836;7.078;2023-03-20T19:47:43;7.83;;;2.63;;
21550;SDS011;10936;49.836;7.078;2023-03-20T19:50:28;7.40;;;2.57;;
21550;SDS011;10936;49.836;7.078;2023-03-20T19:52:59;9.93;;;2.50;;
21550;SDS011;10936;49.836;7.078;2023-03-20T19:55:26;8.60;;;2.50;;
21550;SDS011;10936;49.836;7.078;2023-03-20T19:57:52;7.80;;;2.30;;
21550;SDS011;10936;49.836;7.078;2023-03-20T20:00:20;6.33;;;2.83;;
21550;SDS011;10936;49.836;7.078;2023-03-20T20:02:46;9.97;;;3.17;;
21550;SDS011;10936;49.836;7.078;2023-03-20T20:05:14;10.00;;;3.60;;
21550;SDS011;10936;49.836;7.078;2023-03-20T20:07:47;6.37;;;3.03;;
21550;SDS011;10936;49.836;7.078;2023-03-20T20:10:13;7.80;;;3.40;;
21550;SDS011;10936;49.836;7.078;2023-03-20T20:12:39;10.80;;;3.50;;
21550;SDS011;10936;49.836;7.078;2023-03-20T20:15:06;12.73;;;3.70;;
21550;SDS011;10936;49.836;7.078;2023-03-20T20:17:33;12.10;;;3.63;;
21550;SDS011;10936;49.836;7.078;2023-03-20T20:19:59;8.73;;;3.10;;
21550;SDS011;10936;49.836;7.078;2023-03-20T20:22:24;9.73;;;3.40;;
21550;SDS011;10936;49.836;7.078;2023-03-20T20:24:50;9.57;;;3.33;;
21550;SDS011;10936;49.836;7.078;2023-03-20T20:27:16;11.77;;;3.63;;
21550;SDS011;10936;49.836;7.078;2023-03-20T20:29:46;8.67;;;3.80;;
21550;SDS011;10936;49.836;7.078;2023-03-20T20:32:14;8.43;;;3.37;;
21550;SDS011;10936;49.836;7.078;2023-03-20T20:34:41;13.83;;;3.40;;
21550;SDS011;10936;49.836;7.078;2023-03-20T20:37:07;10.37;;;3.87;;
21550;SDS011;10936;49.836;7.078;2023-03-20T20:39:34;7.63;;;2.73;;
21550;SDS011;10936;49.836;7.078;2023-03-20T20:42:00;10.67;;;3.60;;
21550;SDS011;10936;49.836;7.078;2023-03-20T20:44:26;7.93;;;3.07;;
21550;SDS011;10936;49.836;7.078;2023-03-20T20:46:52;8.53;;;3.60;;
21550;SDS011;10936;49.836;7.078;2023-03-20T20:49:17;8.13;;;3.17;;
21550;SDS011;10936;49.836;7.078;2023-03-20T20:51:43;7.10;;;3.23;;
21550;SDS011;10936;49.836;7.078;2023-03-20T20:54:08;13.57;;;3.63;;
21550;SDS011;10936;49.836;7.078;2023-03-20T20:56:34;11.73;;;3.93;;
21550;SDS011;10936;49.836;7.078;2023-03-20T20:59:00;8.30;;;3.80;;
21550;SDS011;10936;49.836;7.078;2023-03-20T21:01:25;13.90;;;4.03;;
21550;SDS011;10936;49.836;7.078;2023-03-20T21:03:51;10.33;;;3.50;;
21550;SDS011;10936;49.836;7.078;2023-03-20T21:06:17;10.90;;;4.20;;
21550;SDS011;10936;49.836;7.078;2023-03-20T21:08:42;13.10;;;4.17;;
21550;SDS011;10936;49.836;7.078;2023-03-20T21:11:11;10.37;;;4.00;;
21550;SDS011;10936;49.836;7.078;2023-03-20T21:13:36;14.43;;;4.00;;
21550;SDS011;10936;49.836;7.078;2023-03-20T21:16:02;6.27;;;3.53;;
21550;SDS011;10936;49.836;7.078;2023-03-20T21:18:28;11.03;;;4.00;;
21550;SDS011;10936;49.836;7.078;2023-03-20T21:21:01;12.53;;;3.90;;
21550;SDS011;10936;49.836;7.078;2023-03-20T21:23:34;8.03;;;3.27;;
21550;SDS011;10936;49.836;7.078;2023-03-20T21:26:00;12.07;;;3.80;;
21550;SDS011;10936;49.836;7.078;2023-03-20T21:28:26;42.47;;;19.70;;
21550;SDS011;10936;49.836;7.078;2023-03-20T21:30:52;47.43;;;20.47;;
21550;SDS011;10936;49.836;7.078;2023-03-20T21:33:18;24.27;;;9.53;;
21550;SDS011;10936;49.836;7.078;2023-03-20T21:35:45;17.27;;;8.23;;
21550;SDS011;10936;49.836;7.078;2023-03-20T21:38:12;26.83;;;11.40;;
21550;SDS011;10936;49.836;7.078;2023-03-20T21:40:38;28.77;;;12.07;;
21550;SDS011;10936;49.836;7.078;2023-03-20T21:43:04;20.67;;;8.60;;
21550;SDS011;10936;49.836;7.078;2023-03-20T21:45:30;14.80;;;5.03;;
21550;SDS011;10936;49.836;7.078;2023-03-20T21:47:56;21.00;;;8.13;;
21550;SDS011;10936;49.836;7.078;2023-03-20T21:50:21;28.47;;;10.07;;
21550;SDS011;10936;49.836;7.078;2023-03-20T21:52:47;23.47;;;9.40;;
21550;SDS011;10936;49.836;7.078;2023-03-20T21:55:13;15.40;;;5.90;;
21550;SDS011;10936;49.836;7.078;2023-03-20T21:57:39;12.37;;;4.23;;
21550;SDS011;10936;49.836;7.078;2023-03-20T22:00:08;13.00;;;4.43;;
21550;SDS011;10936;49.836;7.078;2023-03-20T22:02:35;13.43;;;6.67;;
21550;SDS011;10936;49.836;7.078;2023-03-20T22:05:01;29.30;;;11.67;;
21550;SDS011;10936;49.836;7.078;2023-03-20T22:07:26;13.93;;;6.20;;
21550;SDS011;10936;49.836;7.078;2023-03-20T22:09:53;24.47;;;9.40;;
21550;SDS011;10936;49.836;7.078;2023-03-20T22:12:18;38.83;;;15.43;;
21550;SDS011;10936;49.836;7.078;2023-03-20T22:14:44;41.30;;;17.80;;
21550;SDS011;10936;49.836;7.078;2023-03-20T22:17:10;30.53;;;11.67;;
21550;SDS011;10936;49.836;7.078;2023-03-20T22:19:35;11.43;;;4.87;;
21550;SDS011;10936;49.836;7.078;2023-03-20T22:22:01;10.07;;;4.37;;
21550;SDS011;10936;49.836;7.078;2023-03-20T22:24:27;17.43;;;5.20;;
21550;SDS011;10936;49.836;7.078;2023-03-20T22:26:53;16.70;;;5.00;;
21550;SDS011;10936;49.836;7.078;2023-03-20T22:29:19;16.47;;;7.93;;
